Main page
METAR-TAF:

METAR-TAF

Airports :

Gillam Airport

Gillam, Manitoba, Canada

latitude: 56-21N, longitude: 094-42W, elevation: 145 m

Current weather observation

The report was made 8 hours and 35 minutes ago, at 20:00 UTC
Wind 15 kt from the Northeast with gusts up to 22 kt
Temperature -2°C
Humidity 46%
Pressure 1008 hPa
Visibility: 24.1 km
Few clouds at a height of 24000 ft

METAR: CYGX 222000Z 05015G22KT 15SM FEW240 M02/M12 A2977 RMK CI1 CI TR SLP095

Time: 23:35 (04:35 UTC)

Forecast

The report was made 9 hours and 55 minutes ago, at 18:40 UTC
Forecast valid from 22 at 19 UTC to 23 at 07 UTC
Wind 15 kt from the Northeast with gusts up to 25 kt
Visibility: 10 km
Clear sky
Becoming
from 23 at 00 UTC to 23 at 02 UTC
Wind 10 kt from the Northeast

TAF: CYGX 221840Z 2219/2307 05015G25KT P6SM SKC BECMG 2300/2302 05010KT RMK NXT FCST BY 230100Z

Weather observations and forecasts of more than 4000 airports (METAR and TAF reports).

The available stations are represented by yellow and red dots on the map.

Hover mouse over dot to see the name of the station.

Then click to see weather observations and forecasts.

To change the map : click on the green buttons with a black cross to zoom in, on the green button with a dash to zoom out, or on the green arrows for adjacent maps.


METAR-TAF: